Time;durP1;ratioP1;P1;durP2;ratioP2;P2;SDS_P1;SDS_P2;PMS_P1;PMS_P2;Temp;Humidity;BMP_temperature;BMP_pressure;BME280_temperature;BME280_humidity;BME280_pressure;Samples;Min_cycle;Max_cycle;Signal;HPM_P1;HPM_P2
2022/05/15 00:02:05;;;;;;;23.73;9.00;;;17.50;95.00;;;;;;5063529;28;20150;-67
2022/05/15 00:04:31;;;;;;;23.95;8.95;;;17.50;94.70;;;;;;5065346;28;20021;-67
2022/05/15 00:06:57;;;;;;;23.35;9.02;;;17.50;94.90;;;;;;5063518;28;20431;-67
2022/05/15 00:09:22;;;;;;;21.20;7.70;;;17.50;94.80;;;;;;5061928;28;20032;-67
2022/05/15 00:11:48;;;;;;;18.10;8.85;;;17.40;94.80;;;;;;5059794;28;20377;-67
2022/05/15 00:14:14;;;;;;;20.77;9.73;;;17.30;94.70;;;;;;5062211;28;20037;-67
2022/05/15 00:16:40;;;;;;;26.50;9.60;;;17.30;95.40;;;;;;5061683;28;20036;-67
2022/05/15 00:19:06;;;;;;;21.73;8.48;;;17.30;94.90;;;;;;5062470;28;20035;-67
2022/05/15 00:21:32;;;;;;;21.35;8.30;;;17.30;95.40;;;;;;5059752;28;20477;-67
2022/05/15 00:23:59;;;;;;;26.80;8.95;;;17.20;95.40;;;;;;5060023;28;20026;-67
2022/05/15 00:26:25;;;;;;;22.48;9.70;;;17.20;94.70;;;;;;5062024;28;20032;-67
2022/05/15 00:28:51;;;;;;;27.92;9.93;;;17.10;95.10;;;;;;5060694;28;20017;-67
2022/05/15 00:31:17;;;;;;;24.13;8.45;;;17.10;94.30;;;;;;5060022;28;20024;-67
2022/05/15 00:33:44;;;;;;;21.20;8.70;;;17.10;94.70;;;;;;5061829;28;20023;-67
2022/05/15 00:36:10;;;;;;;21.88;9.52;;;17.10;95.00;;;;;;5061701;28;20025;-67
2022/05/15 00:38:36;;;;;;;26.27;8.95;;;17.00;94.90;;;;;;5060218;28;20021;-67
2022/05/15 00:41:02;;;;;;;22.45;8.50;;;17.00;94.40;;;;;;5062323;28;20079;-67
2022/05/15 00:43:55;;;;;;;22.45;8.32;;;16.90;95.00;;;;;;5061107;28;20120;-67
2022/05/15 00:46:28;;;;;;;25.77;9.48;;;16.90;95.20;;;;;;5058135;28;20040;-67
2022/05/15 00:48:55;;;;;;;20.63;9.30;;;16.90;95.30;;;;;;5059729;28;20021;-67
2022/05/15 00:51:29;;;;;;;21.83;9.32;;;16.90;95.50;;;;;;5059543;28;20477;-67
2022/05/15 00:54:04;;;;;;;26.50;10.07;;;16.80;95.10;;;;;;5061316;28;20043;-67
2022/05/15 00:56:33;;;;;;;22.40;9.15;;;16.80;95.20;;;;;;5062524;28;20017;-68
2022/05/15 00:59:04;;;;;;;22.50;9.27;;;16.70;95.10;;;;;;5058938;28;20051;-67
2022/05/15 01:01:29;;;;;;;25.90;8.80;;;16.70;95.50;;;;;;5059920;28;20025;-67
2022/05/15 01:03:55;;;;;;;23.55;9.02;;;16.70;95.50;;;;;;5062237;28;20021;-67
2022/05/15 01:06:21;;;;;;;24.40;9.55;;;16.70;95.40;;;;;;5062038;28;20016;-67
2022/05/15 01:08:47;;;;;;;28.67;9.45;;;16.60;96.10;;;;;;5058666;28;20021;-67
2022/05/15 01:11:18;;;;;;;19.90;9.23;;;16.60;96.00;;;;;;5059500;28;20052;-67
2022/05/15 01:13:45;;;;;;;22.35;9.82;;;16.60;96.10;;;;;;5062081;28;20389;-67
2022/05/15 01:16:13;;;;;;;23.50;8.82;;;16.60;95.80;;;;;;5060912;28;20421;-67
2022/05/15 01:18:39;;;;;;;29.08;9.65;;;16.50;95.70;;;;;;5061644;28;20060;-67
2022/05/15 01:21:24;;;;;;;24.63;9.55;;;16.50;95.30;;;;;;5064466;28;20060;-67
2022/05/15 01:23:51;;;;;;;22.98;9.90;;;16.50;96.10;;;;;;5065232;28;20035;-67
2022/05/15 01:26:17;;;;;;;24.98;10.25;;;16.40;95.70;;;;;;5063461;28;20021;-67
2022/05/15 01:28:45;;;;;;;26.83;9.80;;;16.40;95.70;;;;;;5064626;28;20016;-67
2022/05/15 01:31:12;;;;;;;23.85;8.95;;;16.30;96.00;;;;;;5064884;28;20047;-67
2022/05/15 01:33:38;;;;;;;28.58;9.43;;;16.30;96.20;;;;;;5063232;28;20070;-67
2022/05/15 01:36:05;;;;;;;26.40;10.65;;;16.30;96.30;;;;;;5065732;28;20013;-67
2022/05/15 01:38:30;;;;;;;28.80;9.68;;;16.30;95.90;;;;;;5064676;28;20044;-67
2022/05/15 01:40:56;;;;;;;25.42;9.60;;;16.20;95.80;;;;;;5063313;28;20384;-67
2022/05/15 01:43:22;;;;;;;27.60;9.85;;;16.20;96.20;;;;;;5063599;28;20025;-67
2022/05/15 01:45:48;;;;;;;21.25;9.25;;;16.10;95.90;;;;;;5064738;28;20032;-67
2022/05/15 01:48:13;;;;;;;26.15;10.45;;;16.10;96.40;;;;;;5064568;28;20021;-69
2022/05/15 01:50:39;;;;;;;32.58;10.35;;;16.10;96.00;;;;;;5070455;28;20033;-69
2022/05/15 01:53:05;;;;;;;29.13;9.38;;;16.00;96.20;;;;;;5063212;28;20025;-68
2022/05/15 01:55:31;;;;;;;20.58;9.07;;;16.00;96.20;;;;;;5064576;28;20037;-68
2022/05/15 01:57:57;;;;;;;20.83;9.27;;;16.00;96.70;;;;;;5063502;28;20059;-68
2022/05/15 02:00:25;;;;;;;21.63;10.70;;;16.00;96.10;;;;;;5065085;28;20154;-68
2022/05/15 02:02:51;;;;;;;22.98;10.82;;;15.90;96.20;;;;;;5064989;28;20066;-68
2022/05/15 02:05:18;;;;;;;20.52;9.27;;;15.90;96.60;;;;;;5062804;28;20025;-68
2022/05/15 02:07:45;;;;;;;22.80;9.50;;;15.90;96.70;;;;;;5064878;28;20028;-69
2022/05/15 02:10:11;;;;;;;21.95;9.80;;;15.90;96.50;;;;;;5062545;28;20060;-68
2022/05/15 02:12:37;;;;;;;26.83;9.27;;;15.80;96.20;;;;;;5071977;28;20064;-68
2022/05/15 02:15:05;;;;;;;26.73;10.52;;;15.70;96.50;;;;;;5063223;28;20032;-68
2022/05/15 02:17:30;;;;;;;27.48;11.38;;;15.70;96.20;;;;;;5063505;28;20021;-68
2022/05/15 02:19:57;;;;;;;30.35;10.20;;;15.70;96.70;;;;;;5062469;28;20111;-68
2022/05/15 02:22:22;;;;;;;24.40;10.70;;;15.60;96.90;;;;;;5064906;28;20020;-68
2022/05/15 02:24:48;;;;;;;26.20;10.23;;;15.60;96.60;;;;;;5061942;28;20090;-68
2022/05/15 02:27:14;;;;;;;21.88;10.15;;;15.50;96.60;;;;;;5064568;28;20405;-69
2022/05/15 02:29:40;;;;;;;19.88;9.82;;;15.50;97.20;;;;;;5062302;28;20033;-69
2022/05/15 02:32:06;;;;;;;21.67;10.07;;;15.40;97.10;;;;;;5063436;28;20071;-69
2022/05/15 02:34:31;;;;;;;23.40;10.15;;;15.50;96.80;;;;;;5070765;28;20036;-68
2022/05/15 02:36:57;;;;;;;18.58;9.38;;;15.40;97.30;;;;;;5062590;28;20416;-68
2022/05/15 02:39:23;;;;;;;20.17;9.10;;;15.40;97.60;;;;;;5064028;28;20132;-68
2022/05/15 02:41:48;;;;;;;28.27;10.10;;;15.40;97.30;;;;;;5063306;28;20021;-68
2022/05/15 02:44:14;;;;;;;19.83;9.25;;;15.40;97.30;;;;;;5062945;28;20116;-68
2022/05/15 02:46:39;;;;;;;20.88;9.05;;;15.40;97.40;;;;;;5062164;28;20025;-68
2022/05/15 02:51:49;;;;;;;25.58;10.38;;;15.20;97.20;;;;;;5064195;28;20027;-68
2022/05/15 02:54:15;;;;;;;25.52;10.45;;;15.20;96.80;;;;;;5063266;28;20028;-69
2022/05/15 02:56:41;;;;;;;23.00;11.25;;;15.20;97.10;;;;;;5064234;28;20031;-69
2022/05/15 02:59:07;;;;;;;25.67;10.27;;;15.10;97.00;;;;;;5062885;28;20029;-68
2022/05/15 03:01:34;;;;;;;24.73;11.27;;;15.10;97.20;;;;;;5062542;28;20030;-68
2022/05/15 03:04:00;;;;;;;30.98;10.60;;;15.10;97.30;;;;;;5064237;28;20028;-69
2022/05/15 03:06:26;;;;;;;21.80;9.77;;;15.00;97.60;;;;;;5062614;28;20549;-68
2022/05/15 03:08:52;;;;;;;24.27;10.10;;;15.00;98.10;;;;;;5060223;28;20107;-68
2022/05/15 03:11:18;;;;;;;26.48;10.50;;;15.00;98.00;;;;;;5073790;28;20158;-69
2022/05/15 03:13:44;;;;;;;23.83;10.05;;;15.00;97.80;;;;;;5074324;28;20032;-68
2022/05/15 03:16:10;;;;;;;26.73;10.07;;;14.90;98.10;;;;;;5065574;28;20626;-68
2022/05/15 03:18:49;;;;;;;25.67;10.20;;;14.90;97.90;;;;;;5074276;28;20059;-68
2022/05/15 03:21:28;;;;;;;24.27;10.25;;;14.90;98.10;;;;;;5072942;28;20487;-68
2022/05/15 03:24:06;;;;;;;17.58;10.02;;;14.90;98.30;;;;;;5071658;28;20119;-68
2022/05/15 03:26:35;;;;;;;24.88;10.38;;;14.80;98.60;;;;;;5073878;28;20037;-68
2022/05/15 03:29:01;;;;;;;22.33;10.63;;;14.80;98.20;;;;;;5073678;28;20100;-68
2022/05/15 03:31:27;;;;;;;23.80;9.50;;;14.80;98.50;;;;;;5072637;28;20048;-68
2022/05/15 03:33:52;;;;;;;22.55;10.23;;;14.80;98.10;;;;;;5074039;28;20610;-68
2022/05/15 03:36:18;;;;;;;24.38;11.15;;;14.80;98.10;;;;;;5073917;28;20028;-68
2022/05/15 03:38:45;;;;;;;20.48;10.30;;;14.70;98.30;;;;;;5055098;28;20028;-69
2022/05/15 03:41:11;;;;;;;24.27;9.55;;;14.70;99.00;;;;;;5053681;28;20564;-68
2022/05/15 03:43:37;;;;;;;27.83;10.20;;;14.70;99.40;;;;;;5052936;28;20108;-68
2022/05/15 03:46:04;;;;;;;17.55;8.52;;;14.70;99.30;;;;;;5056510;28;20096;-68
2022/05/15 03:48:31;;;;;;;20.63;9.38;;;14.60;99.30;;;;;;5073272;28;20028;-68
2022/05/15 03:50:57;;;;;;;21.20;10.02;;;14.60;99.10;;;;;;5073320;28;20060;-68
2022/05/15 03:53:24;;;;;;;22.20;9.32;;;14.50;98.80;;;;;;5087169;28;20063;-68
2022/05/15 03:55:50;;;;;;;17.10;8.95;;;14.50;99.20;;;;;;5055492;28;20461;-68
2022/05/15 03:58:16;;;;;;;20.30;9.98;;;14.50;99.10;;;;;;5053331;28;20017;-68
2022/05/15 04:00:42;;;;;;;20.80;9.60;;;14.60;98.60;;;;;;5052569;28;20412;-68
2022/05/15 04:03:08;;;;;;;17.52;9.90;;;14.60;99.20;;;;;;5052583;28;20380;-68
2022/05/15 04:05:33;;;;;;;20.00;9.85;;;14.50;99.10;;;;;;5063530;28;20036;-68
2022/05/15 04:07:59;;;;;;;21.70;9.52;;;14.50;98.60;;;;;;5072923;28;20017;-68
2022/05/15 04:10:26;;;;;;;28.75;10.52;;;14.50;98.70;;;;;;5072773;28;20033;-68
2022/05/15 04:12:52;;;;;;;18.88;9.68;;;14.50;99.00;;;;;;5072761;28;20412;-68
2022/05/15 04:15:17;;;;;;;18.48;9.65;;;14.40;99.90;;;;;;5072627;28;20093;-68
2022/05/15 04:17:52;;;;;;;21.98;9.10;;;14.40;99.70;;;;;;5073198;28;20070;-68
2022/05/15 04:20:23;;;;;;;20.70;9.60;;;14.30;99.60;;;;;;5071897;28;20029;-68
2022/05/15 04:22:50;;;;;;;22.60;9.30;;;14.30;99.90;;;;;;5073311;28;20028;-69
2022/05/15 04:25:16;;;;;;;27.13;10.18;;;14.20;99.90;;;;;;5061878;28;20116;-68
2022/05/15 04:27:42;;;;;;;20.52;10.80;;;14.20;99.90;;;;;;5051024;28;20127;-68
2022/05/15 04:30:11;;;;;;;21.45;9.65;;;14.20;99.90;;;;;;5052732;28;20064;-69
2022/05/15 04:32:37;;;;;;;17.90;9.70;;;14.20;99.90;;;;;;5052628;28;20076;-68
2022/05/15 04:35:04;;;;;;;16.90;8.68;;;14.20;99.90;;;;;;5051762;28;20574;-68
2022/05/15 04:37:29;;;;;;;16.88;8.73;;;14.20;99.90;;;;;;5061844;28;20025;-68
2022/05/15 04:39:55;;;;;;;21.25;10.88;;;14.20;99.30;;;;;;5071103;28;20092;-68
2022/05/15 04:42:20;;;;;;;27.38;10.57;;;14.20;99.60;;;;;;5072512;28;20042;-68
2022/05/15 04:44:46;;;;;;;22.58;9.90;;;14.20;99.80;;;;;;5073093;28;20501;-68
2022/05/15 04:47:15;;;;;;;18.02;9.30;;;14.20;99.80;;;;;;5072249;28;20020;-68
2022/05/15 04:49:41;;;;;;;22.73;10.40;;;14.30;99.60;;;;;;5072234;28;20024;-68
2022/05/15 04:52:06;;;;;;;26.27;9.90;;;14.20;99.70;;;;;;5072053;28;20028;-68
2022/05/15 04:54:32;;;;;;;26.17;10.65;;;14.20;99.90;;;;;;5069059;28;20031;-68
2022/05/15 04:56:58;;;;;;;27.10;11.95;;;14.20;99.90;;;;;;5056250;28;20071;-69
2022/05/15 04:59:24;;;;;;;24.63;11.80;;;14.20;99.90;;;;;;5072423;28;20024;-69
2022/05/15 05:01:49;;;;;;;20.45;11.18;;;14.20;99.90;;;;;;5056734;28;20028;-68
2022/05/15 05:04:15;;;;;;;23.90;9.88;;;14.20;99.90;;;;;;5056603;28;20029;-68
2022/05/15 05:06:41;;;;;;;25.52;10.25;;;14.30;99.90;;;;;;5056058;28;20839;-68
2022/05/15 05:09:07;;;;;;;27.75;10.98;;;14.30;99.90;;;;;;5060528;28;20024;-68
2022/05/15 05:11:33;;;;;;;25.17;10.70;;;14.30;99.90;;;;;;5075677;28;20041;-68
2022/05/15 05:13:58;;;;;;;24.88;10.73;;;14.30;99.90;;;;;;5076095;28;20037;-68
2022/05/15 05:16:24;;;;;;;25.35;10.48;;;14.30;99.90;;;;;;5075259;28;20031;-68
2022/05/15 05:18:50;;;;;;;24.98;10.07;;;14.30;99.90;;;;;;5076172;28;20020;-68
2022/05/15 05:21:15;;;;;;;23.27;11.02;;;14.30;99.90;;;;;;5075777;28;20021;-68
2022/05/15 05:23:41;;;;;;;23.77;10.43;;;14.40;99.90;;;;;;5075721;28;20028;-68
2022/05/15 05:26:07;;;;;;;29.33;11.40;;;14.40;99.90;;;;;;5058564;28;20032;-69
2022/05/15 05:28:32;;;;;;;25.08;11.40;;;14.40;99.90;;;;;;5056211;28;20040;-68
2022/05/15 05:30:58;;;;;;;20.55;10.35;;;14.50;99.90;;;;;;5056167;28;20100;-68
2022/05/15 05:33:25;;;;;;;24.88;10.75;;;14.50;99.90;;;;;;5062324;28;20020;-68
2022/05/15 05:35:51;;;;;;;25.73;10.77;;;14.50;99.90;;;;;;5075876;28;20068;-68
2022/05/15 05:38:17;;;;;;;29.85;12.55;;;14.50;99.90;;;;;;5075882;28;20419;-68
2022/05/15 05:40:43;;;;;;;29.90;12.63;;;14.50;99.90;;;;;;5075826;28;20033;-68
2022/05/15 05:43:10;;;;;;;25.80;10.80;;;14.50;99.90;;;;;;5076092;28;20074;-68
2022/05/15 05:45:36;;;;;;;28.25;10.68;;;14.50;99.90;;;;;;5074414;28;20392;-68
2022/05/15 05:48:02;;;;;;;23.92;11.55;;;14.60;99.90;;;;;;5073954;28;20480;-68
2022/05/15 05:50:29;;;;;;;26.90;11.38;;;14.60;99.90;;;;;;5074930;28;20039;-68
2022/05/15 05:52:55;;;;;;;25.45;10.90;;;14.70;99.90;;;;;;5091478;28;20115;-68
2022/05/15 05:55:22;;;;;;;23.42;10.95;;;14.70;99.90;;;;;;5064440;28;20085;-68
2022/05/15 05:57:48;;;;;;;22.55;10.82;;;14.70;99.90;;;;;;5055778;28;20021;-68
2022/05/15 06:00:35;;;;;;;26.95;10.70;;;14.70;99.90;;;;;;5064017;28;20026;-68
2022/05/15 06:05:46;;;;;;;25.38;11.40;;;14.80;99.90;;;;;;5074249;28;20086;-68
2022/05/15 06:08:13;;;;;;;27.73;13.40;;;14.90;99.90;;;;;;5075369;28;20029;-68
2022/05/15 06:10:39;;;;;;;31.30;12.82;;;14.90;99.90;;;;;;5075523;28;20024;-68
2022/05/15 06:13:06;;;;;;;20.42;11.05;;;14.90;99.90;;;;;;5075846;28;20040;-68
2022/05/15 06:15:32;;;;;;;24.98;11.43;;;15.00;99.90;;;;;;5075482;28;20035;-68
2022/05/15 06:17:59;;;;;;;24.13;12.23;;;15.10;99.90;;;;;;5071756;28;20024;-68
2022/05/15 06:20:25;;;;;;;30.42;11.73;;;15.10;99.90;;;;;;5055144;28;20454;-68
2022/05/15 06:22:51;;;;;;;23.75;14.55;;;15.20;99.90;;;;;;5055566;28;20056;-69
2022/05/15 06:25:16;;;;;;;29.33;16.05;;;15.30;99.90;;;;;;5063602;28;20036;-68
2022/05/15 06:27:42;;;;;;;30.48;13.68;;;15.40;99.90;;;;;;5075225;28;20107;-68
2022/05/15 06:30:09;;;;;;;34.80;18.60;;;15.50;99.90;;;;;;5075036;28;20024;-68
2022/05/15 06:32:34;;;;;;;28.40;16.40;;;15.50;99.90;;;;;;5074618;28;20021;-68
2022/05/15 06:35:00;;;;;;;25.65;14.32;;;15.70;99.90;;;;;;5073924;28;20051;-68
2022/05/15 06:37:26;;;;;;;24.40;12.35;;;15.70;99.90;;;;;;5074969;28;20021;-68
2022/05/15 06:39:51;;;;;;;24.58;12.85;;;15.90;99.90;;;;;;5074949;28;20037;-68
2022/05/15 06:42:17;;;;;;;28.33;16.42;;;15.90;99.90;;;;;;5075064;28;20013;-68
2022/05/15 06:44:43;;;;;;;29.27;16.50;;;16.00;99.90;;;;;;5057166;28;20469;-68
2022/05/15 06:47:09;;;;;;;25.75;16.00;;;16.10;99.90;;;;;;5060356;28;20100;-68
2022/05/15 06:49:35;;;;;;;18.88;14.27;;;16.10;99.90;;;;;;5063188;28;20033;-68
2022/05/15 06:52:00;;;;;;;31.25;17.75;;;16.20;99.90;;;;;;5054759;28;20082;-68
2022/05/15 06:54:26;;;;;;;36.25;17.10;;;16.30;99.90;;;;;;5054820;28;20037;-68
2022/05/15 06:59:36;;;;;;;28.77;15.45;;;16.60;99.90;;;;;;5054396;28;20060;-68
2022/05/15 07:02:02;;;;;;;31.98;15.43;;;16.70;99.90;;;;;;5061671;28;20465;-68
2022/05/15 07:04:28;;;;;;;27.15;13.75;;;16.90;99.90;;;;;;5074808;28;20024;-68
2022/05/15 07:06:53;;;;;;;19.92;13.18;;;17.00;99.90;;;;;;5074474;28;20031;-68
2022/05/15 07:09:19;;;;;;;23.30;13.93;;;17.30;99.90;;;;;;5074475;28;20461;-68
2022/05/15 07:11:45;;;;;;;19.20;11.88;;;17.40;99.90;;;;;;5059855;28;20040;-68
2022/05/15 07:14:11;;;;;;;20.25;11.07;;;17.60;99.90;;;;;;5054138;28;20602;-68
2022/05/15 07:16:37;;;;;;;19.25;11.48;;;17.80;99.90;;;;;;5053598;28;20043;-68
2022/05/15 07:19:03;;;;;;;24.40;11.00;;;17.90;99.90;;;;;;5053960;28;20219;-68
2022/05/15 07:21:28;;;;;;;19.63;10.88;;;18.00;99.90;;;;;;5055139;28;20029;-68
2022/05/15 07:23:54;;;;;;;19.65;9.95;;;18.20;99.90;;;;;;5054409;28;20029;-68
2022/05/15 07:26:19;;;;;;;17.38;10.23;;;18.40;99.90;;;;;;5054217;28;20025;-68
2022/05/15 07:28:50;;;;;;;17.67;9.48;;;18.60;99.90;;;;;;5053747;28;20096;-68
2022/05/15 07:31:18;;;;;;;23.92;10.45;;;18.70;99.90;;;;;;5054177;28;20117;-68
2022/05/15 07:33:44;;;;;;;19.55;10.77;;;18.90;99.90;;;;;;5054022;28;20025;-68
2022/05/15 07:36:10;;;;;;;14.52;9.02;;;19.00;99.90;;;;;;5054021;28;20025;-68
2022/05/15 07:38:36;;;;;;;19.67;9.38;;;19.20;99.90;;;;;;5061855;28;20025;-68
2022/05/15 07:41:01;;;;;;;19.92;8.90;;;19.40;99.90;;;;;;5073943;28;20028;-68
2022/05/15 07:43:27;;;;;;;17.67;9.10;;;19.60;99.90;;;;;;5072618;28;20078;-68
2022/05/15 07:45:53;;;;;;;15.02;9.82;;;19.70;99.90;;;;;;5073907;28;20017;-69
2022/05/15 07:48:19;;;;;;;20.83;10.45;;;19.90;99.90;;;;;;5071230;28;20494;-68
2022/05/15 07:50:45;;;;;;;17.55;9.63;;;20.00;99.50;;;;;;5073685;28;20025;-68
2022/05/15 07:53:11;;;;;;;18.95;10.50;;;20.10;99.30;;;;;;5062215;28;20036;-68
2022/05/15 07:55:37;;;;;;;16.05;9.52;;;20.20;98.30;;;;;;5053576;28;20048;-68
2022/05/15 07:58:03;;;;;;;18.45;9.38;;;20.40;97.70;;;;;;5053310;28;20052;-68
2022/05/15 08:00:29;;;;;;;20.20;9.05;;;20.60;97.60;;;;;;5053396;28;20048;-69
2022/05/15 08:03:27;;;;;;;13.77;8.20;;;20.80;96.70;;;;;;5065571;28;20020;-70
2022/05/15 08:08:36;;;;;;;14.43;7.35;;;21.10;96.50;;;;;;5072627;28;20036;-69
2022/05/15 08:11:02;;;;;;;16.67;6.63;;;21.30;96.50;;;;;;5073001;28;20037;-69
2022/05/15 08:13:31;;;;;;;16.48;8.00;;;21.40;95.50;;;;;;5067963;28;20100;-69
2022/05/15 08:15:57;;;;;;;12.98;6.15;;;21.60;95.30;;;;;;5053221;28;20037;-70
2022/05/15 08:23:57;;;;;;;12.82;5.13;;;22.20;94.80;;;;;;5073238;28;20124;-68
2022/05/15 08:26:24;;;;;;;15.32;6.53;;;22.50;94.80;;;;;;5073016;28;20021;-68
2022/05/15 08:28:49;;;;;;;13.18;5.60;;;22.60;94.10;;;;;;5062236;28;20029;-68
2022/05/15 08:31:17;;;;;;;10.00;6.35;;;22.70;92.90;;;;;;5053162;28;20071;-68
2022/05/15 08:33:43;;;;;;;14.98;6.25;;;22.90;94.20;;;;;;5053110;28;20017;-68
2022/05/15 08:36:10;;;;;;;13.18;5.68;;;23.00;92.90;;;;;;5053072;28;20037;-68
2022/05/15 08:38:37;;;;;;;12.82;5.93;;;23.10;92.00;;;;;;5053009;28;20040;-68
2022/05/15 08:41:07;;;;;;;15.15;5.10;;;23.10;91.50;;;;;;5058338;28;20044;-68
2022/05/15 08:43:43;;;;;;;14.70;6.13;;;23.30;92.00;;;;;;5051733;28;20044;-68
2022/05/15 08:46:37;;;;;;;14.77;5.38;;;23.30;91.10;;;;;;5067826;28;20334;-68
2022/05/15 08:49:24;;;;;;;22.10;5.78;;;23.60;91.80;;;;;;5063456;28;20025;-68
2022/05/15 08:52:14;;;;;;;12.35;6.22;;;23.90;91.70;;;;;;5065400;28;20020;-69
2022/05/15 08:55:09;;;;;;;19.85;6.22;;;24.00;89.50;;;;;;5067008;28;20433;-67
2022/05/15 08:57:39;;;;;;;10.65;5.10;;;24.00;90.20;;;;;;5073306;28;20029;-67
2022/05/15 09:00:10;;;;;;;12.00;5.10;;;24.10;88.60;;;;;;5061859;28;20020;-68
2022/05/15 09:02:42;;;;;;;10.55;4.88;;;24.20;88.50;;;;;;5062382;28;20112;-68
2022/05/15 09:05:10;;;;;;;14.33;5.77;;;24.30;87.20;;;;;;5074048;28;20032;-68
2022/05/15 09:07:46;;;;;;;12.10;5.03;;;24.40;87.90;;;;;;5059012;28;20108;-68
2022/05/15 09:10:25;;;;;;;11.63;5.40;;;24.40;86.60;;;;;;5061865;28;20025;-68
2022/05/15 09:13:17;;;;;;;8.50;4.88;;;24.70;88.60;;;;;;5057165;28;20411;-68
2022/05/15 09:15:57;;;;;;;11.65;4.55;;;24.80;87.10;;;;;;5061051;28;20049;-68
2022/05/15 09:18:24;;;;;;;10.85;5.45;;;25.20;88.60;;;;;;5061568;28;20047;-69
2022/05/15 09:20:52;;;;;;;10.60;5.13;;;25.10;85.30;;;;;;5063122;28;20485;-68
2022/05/15 09:23:21;;;;;;;10.70;5.82;;;25.30;86.30;;;;;;5064345;28;20025;-68
2022/05/15 09:25:58;;;;;;;11.10;6.10;;;25.30;86.20;;;;;;5049175;28;20036;-68
2022/05/15 09:28:27;;;;;;;9.32;5.35;;;25.30;83.60;;;;;;5049759;28;20056;-68
2022/05/15 09:30:55;;;;;;;11.23;5.03;;;25.60;84.80;;;;;;5050319;28;20028;-68
2022/05/15 09:33:23;;;;;;;10.93;5.07;;;25.60;84.60;;;;;;5049737;28;20405;-68
2022/05/15 09:35:49;;;;;;;9.43;4.90;;;25.50;84.10;;;;;;5050146;28;20029;-68
2022/05/15 09:38:27;;;;;;;14.38;5.68;;;25.70;82.30;;;;;;5064871;28;20074;-69
2022/05/15 09:44:25;;;;;;;9.75;4.47;;;25.70;86.20;;;;;;5033619;28;20036;-69
2022/05/15 09:47:03;;;;;;;12.27;4.97;;;25.90;86.80;;;;;;5033542;28;20030;-68
2022/05/15 09:49:33;;;;;;;10.20;4.32;;;26.20;84.50;;;;;;5065165;28;20057;-69
2022/05/15 09:52:01;;;;;;;11.63;4.50;;;26.10;81.90;;;;;;5074949;28;20028;-69
2022/05/15 09:54:43;;;;;;;7.85;4.68;;;26.30;81.80;;;;;;5055662;28;20029;-69
2022/05/15 09:57:22;;;;;;;8.27;4.90;;;26.30;81.20;;;;;;5056011;28;20033;-68
2022/05/15 09:59:59;;;;;;;13.68;4.57;;;26.30;81.20;;;;;;5055678;28;20466;-68
2022/05/15 10:02:52;;;;;;;10.15;4.00;;;26.40;82.90;;;;;;5064124;28;20028;-69
2022/05/15 10:05:26;;;;;;;12.95;4.90;;;26.40;79.60;;;;;;5067129;28;20044;-69
2022/05/15 10:08:24;;;;;;;6.47;3.67;;;26.50;82.80;;;;;;5065841;28;20024;-68
2022/05/15 10:11:01;;;;;;;10.80;4.22;;;26.70;80.30;;;;;;5073527;28;20056;-68
2022/05/15 10:13:50;;;;;;;9.68;4.20;;;26.60;78.70;;;;;;5058938;28;20075;-68
2022/05/15 10:16:25;;;;;;;10.38;4.47;;;26.80;80.30;;;;;;5075092;28;20077;-69
2022/05/15 10:19:00;;;;;;;8.82;3.70;;;26.80;79.40;;;;;;5074927;28;20016;-69
2022/05/15 10:21:38;;;;;;;9.38;4.28;;;27.10;81.30;;;;;;5074268;28;20025;-69
2022/05/15 10:24:10;;;;;;;9.35;4.45;;;27.30;82.00;;;;;;5073866;28;20021;-69
2022/05/15 10:26:46;;;;;;;8.00;4.25;;;27.20;77.70;;;;;;5070503;28;20017;-69
2022/05/15 10:29:22;;;;;;;9.43;4.00;;;27.50;81.50;;;;;;5075075;28;20468;-69
2022/05/15 10:31:53;;;;;;;10.50;3.75;;;27.60;79.10;;;;;;5070230;28;20047;-69
2022/05/15 10:34:25;;;;;;;7.97;3.80;;;27.80;80.80;;;;;;5075004;28;20020;-69
2022/05/15 10:37:16;;;;;;;9.18;4.35;;;27.70;77.60;;;;;;5064231;28;20053;-69
2022/05/15 10:39:56;;;;;;;12.32;4.85;;;27.80;77.50;;;;;;5055079;28;20469;-69
2022/05/15 10:42:25;;;;;;;8.07;3.85;;;27.50;75.60;;;;;;5067246;28;20036;-69
2022/05/15 10:45:09;;;;;;;11.65;4.28;;;27.50;80.30;;;;;;5074863;28;20060;-69
2022/05/15 10:47:58;;;;;;;13.98;4.38;;;27.50;75.70;;;;;;5074565;28;20029;-69
2022/05/15 10:50:45;;;;;;;9.68;3.97;;;27.60;77.40;;;;;;5054929;28;20144;-69
2022/05/15 10:59:22;;;;;;;10.57;4.10;;;27.50;74.10;;;;;;5054462;28;20102;-69
2022/05/15 11:02:28;;;;;;;9.15;3.75;;;27.40;73.40;;;;;;5061774;28;20274;-69
2022/05/15 11:05:32;;;;;;;11.25;4.35;;;27.50;76.30;;;;;;5073412;28;20044;-69
2022/05/15 11:08:23;;;;;;;10.80;4.15;;;27.80;74.40;;;;;;5074463;28;20085;-69
2022/05/15 11:11:03;;;;;;;9.02;3.63;;;28.10;74.60;;;;;;5070719;28;20029;-69
2022/05/15 11:13:52;;;;;;;8.85;3.47;;;28.00;75.60;;;;;;5074598;28;20025;-68
2022/05/15 11:16:27;;;;;;;7.35;3.65;;;28.10;78.60;;;;;;5073932;28;20504;-69
2022/05/15 11:19:03;;;;;;;11.50;3.90;;;28.00;75.80;;;;;;5073419;28;20465;-69
2022/05/15 11:21:51;;;;;;;10.90;3.47;;;28.20;78.00;;;;;;5073650;28;20025;-68
2022/05/15 11:24:38;;;;;;;9.05;3.60;;;28.60;74.30;;;;;;5074182;28;20095;-69
2022/05/15 11:27:09;;;;;;;8.32;4.13;;;28.30;74.30;;;;;;5073863;28;20016;-68
2022/05/15 11:29:41;;;;;;;8.27;3.40;;;28.10;72.50;;;;;;5074050;28;20074;-69
2022/05/15 11:32:37;;;;;;;8.90;3.70;;;28.30;73.90;;;;;;5066681;28;20771;-68
2022/05/15 11:35:03;;;;;;;7.80;3.92;;;28.20;74.40;;;;;;5053741;28;20418;-69
2022/05/15 11:37:38;;;;;;;7.85;4.00;;;28.20;72.30;;;;;;5053768;28;20059;-69
2022/05/15 11:40:09;;;;;;;8.18;3.60;;;28.30;72.20;;;;;;5069621;28;20032;-69
2022/05/15 11:42:35;;;;;;;8.13;3.38;;;28.70;72.30;;;;;;5072450;28;20024;-69
2022/05/15 11:45:40;;;;;;;10.88;4.13;;;28.40;74.90;;;;;;5073825;28;20542;-68
2022/05/15 11:48:19;;;;;;;9.73;3.30;;;28.50;71.90;;;;;;5073023;28;20115;-69
2022/05/15 11:51:16;;;;;;;9.82;3.53;;;28.60;71.30;;;;;;5073449;28;20036;-69
2022/05/15 11:54:10;;;;;;;12.77;3.67;;;28.60;72.60;;;;;;5072952;28;20474;-69
2022/05/15 11:56:38;;;;;;;12.05;3.45;;;28.90;72.30;;;;;;5073254;28;20056;-69
2022/05/15 11:59:06;;;;;;;10.35;3.95;;;28.90;74.50;;;;;;5073514;28;20074;-68
2022/05/15 12:01:38;;;;;;;9.20;3.90;;;28.90;72.10;;;;;;5071998;28;20119;-69
2022/05/15 12:04:04;;;;;;;9.63;3.45;;;28.90;74.10;;;;;;5053300;28;20374;-69
2022/05/15 12:06:45;;;;;;;8.50;4.15;;;29.00;73.70;;;;;;5053339;28;20086;-69
2022/05/15 12:09:17;;;;;;;7.57;3.43;;;29.30;71.80;;;;;;5054437;28;20027;-69
2022/05/15 12:11:48;;;;;;;10.55;3.80;;;29.10;68.80;;;;;;5053346;28;20477;-69
2022/05/15 12:14:26;;;;;;;7.57;3.45;;;28.60;72.30;;;;;;5053299;28;20078;-69
2022/05/15 12:17:00;;;;;;;9.68;3.38;;;28.60;71.90;;;;;;5053383;28;20041;-69
2022/05/15 12:19:28;;;;;;;9.73;3.58;;;28.70;70.20;;;;;;5052867;28;20025;-68
2022/05/15 12:21:58;;;;;;;7.03;3.30;;;28.70;69.20;;;;;;5053270;28;20096;-69
2022/05/15 12:24:32;;;;;;;5.22;2.90;;;28.80;67.60;;;;;;5053088;28;20033;-69
2022/05/15 12:27:19;;;;;;;7.82;3.85;;;28.90;68.60;;;;;;5053198;28;20041;-68
2022/05/15 12:29:59;;;;;;;6.88;3.38;;;28.60;68.70;;;;;;5065054;28;20028;-68
2022/05/15 12:32:33;;;;;;;7.85;3.35;;;28.90;70.90;;;;;;5072017;28;20028;-69
2022/05/15 12:34:59;;;;;;;6.35;2.97;;;29.10;69.50;;;;;;5072716;28;20037;-69
2022/05/15 12:37:29;;;;;;;9.70;2.88;;;29.20;68.60;;;;;;5071792;28;20484;-68
2022/05/15 12:39:58;;;;;;;6.93;2.70;;;29.10;65.70;;;;;;5073001;28;20024;-69
2022/05/15 12:42:35;;;;;;;7.15;2.90;;;28.90;65.20;;;;;;5073226;28;20488;-69
2022/05/15 12:45:11;;;;;;;6.85;2.45;;;28.70;64.80;;;;;;5073153;28;20115;-68
2022/05/15 12:47:37;;;;;;;6.03;2.63;;;28.90;66.20;;;;;;5067207;28;20035;-69
2022/05/15 12:50:17;;;;;;;5.78;2.80;;;28.60;66.10;;;;;;5056212;28;20017;-69
2022/05/15 12:52:43;;;;;;;12.15;2.70;;;28.90;71.90;;;;;;5058112;28;20099;-68
2022/05/15 12:55:20;;;;;;;6.53;2.45;;;29.20;66.90;;;;;;5072901;28;20119;-69
2022/05/15 12:57:49;;;;;;;6.68;2.67;;;29.30;67.30;;;;;;5064589;28;20029;-68
2022/05/15 13:00:18;;;;;;;5.95;2.80;;;29.30;66.00;;;;;;5052741;28;20017;-68
2022/05/15 13:02:45;;;;;;;5.78;2.42;;;29.30;61.30;;;;;;5051403;28;20021;-69
2022/05/15 13:05:30;;;;;;;4.10;1.85;;;29.20;64.80;;;;;;5052689;28;20028;-69
2022/05/15 13:07:59;;;;;;;7.07;2.25;;;29.40;62.40;;;;;;5063883;28;20029;-69
2022/05/15 13:10:26;;;;;;;5.00;2.30;;;29.60;62.90;;;;;;5072233;28;20349;-69
2022/05/15 13:13:22;;;;;;;5.72;2.40;;;29.60;60.90;;;;;;5072817;28;20119;-69
2022/05/15 13:15:51;;;;;;;6.32;2.28;;;29.80;63.90;;;;;;5071929;28;20138;-69
2022/05/15 13:18:17;;;;;;;5.38;2.30;;;29.80;63.20;;;;;;5058254;28;20477;-68